Terminal Aerodrome Forecast
Issued by NWS Sioux Falls, SD

Home | Current Version | Previous Version | Text Only | Print | Product List | Glossary Off
Versions: 1 2 3 4 5 6 7 8 9 10 11 12 13 14 15 16

000
FTUS43 KFSD 181720
TAFFSD
TAF
KFSD 181720Z 1818/1918 05012KT P6SM SCT035 BKN070
     FM182100 06011KT P6SM VCTS BKN050CB
     FM182300 06011KT P6SM BKN060
     FM190300 07007KT P6SM BKN140
     FM191200 08005KT P6SM SCT110
     FM191500 12012KT P6SM SCT090=

USA.gov is the U.S. government's official web portal to all federal, state and local government web resources and services.